Terminal Aerodrome Forecast
Issued by NWS

Home | Current Version | Previous Version | Graphics & Text | Print | Product List | Glossary On
Versions: 1 2 3 4 5 6 7 8 9 10 11 12 13
000
FTUS45 KGGW 231100
TAFOLF
TAF
KOLF 231130Z 2312/2412 VRB05KT P6SM BKN200
     FM231800 23009KT P6SM BKN150
     FM232100 26011KT P6SM BKN100
     FM240000 24006KT P6SM BKN110=

USA.gov is the U.S. government's official web portal to all federal, state and local government web resources and services.